Tyler, Washington
Current Conditions -  °F | °C
As of 10:55 AM on Sunday 23 Nov 2014 (Local Time) from KSKA Reporting Station
Overcast Overcast  
Wind Chill: 29°   Ceiling: 900
Heat Index: 37°   Visibility: 10mi
Dew Point: 36°   Wind: 15mph
Humidity: 93%   Direction: 200°SSW
Pressure: 30.04"   Gusts: NA
Location:  47.411°N, 117.628°W
Report Text: KSKA 231855Z 20013KT 10SM OVC009 03/02 A3004 RMK AO2A SLPNO WND DATA ESTMD ALSTG ESTMD $
Loading
Personal Weather Stations






























Interactive Weather Map New forecast layout! Learn more

10-Day Weather Forecast

Advertisements
Track Severe Weather on mobile